Time;durP1;ratioP1;P1;durP2;ratioP2;P2;SDS_P1;SDS_P2;PMS_P1;PMS_P2;Temp;Humidity;BMP_temperature;BMP_pressure;BME280_temperature;BME280_humidity;BME280_pressure;Samples;Min_cycle;Max_cycle;Signal;HPM_P1;HPM_P2
2023/05/20 00:00:41;;;;;;;6.17;3.90;;;13.10;99.90;;;;;;5073147;28;20242;-66
2023/05/20 00:03:08;;;;;;;9.00;4.73;;;13.20;99.90;;;;;;5072685;28;20208;-68
2023/05/20 00:05:34;;;;;;;6.17;4.00;;;13.20;99.90;;;;;;5072856;28;20271;-67
2023/05/20 00:08:03;;;;;;;7.53;3.77;;;13.20;99.90;;;;;;5072628;28;20235;-66
2023/05/20 00:10:30;;;;;;;4.47;3.40;;;13.20;99.90;;;;;;5072738;28;20212;-67
2023/05/20 00:12:56;;;;;;;5.03;3.33;;;13.20;99.90;;;;;;5072398;28;20205;-67
2023/05/20 00:15:25;;;;;;;4.97;3.63;;;13.20;99.90;;;;;;5072320;28;20221;-67
2023/05/20 00:17:51;;;;;;;4.73;3.40;;;13.20;99.90;;;;;;5072734;28;20236;-67
2023/05/20 00:20:18;;;;;;;4.47;3.53;;;13.20;99.90;;;;;;5072520;28;20301;-67
2023/05/20 00:22:45;;;;;;;5.63;3.47;;;13.20;99.90;;;;;;5072219;28;20205;-66
2023/05/20 00:25:13;;;;;;;5.27;3.53;;;13.20;99.90;;;;;;5072102;28;20708;-65
2023/05/20 00:27:40;;;;;;;3.87;3.20;;;13.20;99.90;;;;;;5072210;28;20221;-66
2023/05/20 00:30:08;;;;;;;6.23;3.50;;;13.20;99.90;;;;;;5072206;28;20212;-68
2023/05/20 00:32:36;;;;;;;3.83;3.30;;;13.20;99.90;;;;;;5072054;28;20223;-68
2023/05/20 00:35:03;;;;;;;4.40;3.37;;;13.30;99.90;;;;;;5072220;28;20232;-68
2023/05/20 00:37:30;;;;;;;4.20;3.17;;;13.40;99.90;;;;;;5072259;28;20273;-67
2023/05/20 00:39:57;;;;;;;6.83;3.43;;;13.40;99.90;;;;;;5072166;28;20212;-67
2023/05/20 00:42:24;;;;;;;4.80;3.53;;;13.40;99.90;;;;;;5072015;28;20208;-67
2023/05/20 00:44:51;;;;;;;4.00;3.17;;;13.40;99.90;;;;;;5072471;28;20232;-65
2023/05/20 00:47:19;;;;;;;5.57;3.63;;;13.40;99.90;;;;;;5072043;28;20634;-65
2023/05/20 00:49:49;;;;;;;4.77;3.50;;;13.40;99.90;;;;;;5072192;28;20240;-66
2023/05/20 00:52:17;;;;;;;6.23;3.60;;;13.40;99.90;;;;;;5071750;28;20247;-65
2023/05/20 00:54:44;;;;;;;5.17;3.43;;;13.30;99.90;;;;;;5071760;28;20209;-66
2023/05/20 00:57:12;;;;;;;5.40;3.70;;;13.40;99.90;;;;;;5071698;28;20632;-67
2023/05/20 00:59:39;;;;;;;5.97;3.63;;;13.40;99.90;;;;;;5071826;28;20205;-66
2023/05/20 01:02:07;;;;;;;5.40;3.00;;;13.50;99.90;;;;;;5071682;28;20201;-65
2023/05/20 01:04:34;;;;;;;4.83;3.10;;;13.60;99.90;;;;;;5071357;28;20680;-67
2023/05/20 01:07:05;;;;;;;3.57;3.17;;;13.60;99.90;;;;;;5072151;28;20212;-67
2023/05/20 01:09:33;;;;;;;4.77;3.40;;;13.20;99.90;;;;;;5071712;28;20219;-68
2023/05/20 01:12:05;;;;;;;4.30;3.30;;;13.80;99.90;;;;;;5071569;28;20213;-66
2023/05/20 01:14:37;;;;;;;5.10;3.37;;;13.90;99.90;;;;;;5071705;28;20208;-69
2023/05/20 01:17:09;;;;;;;27.20;21.97;;;13.90;99.90;;;;;;5088070;22;20233;-62
2023/05/20 01:19:41;;;;;;;4.57;3.57;;;14.00;99.90;;;;;;5078156;28;20204;-62
2023/05/20 01:22:11;;;;;;;6.03;3.60;;;14.00;99.90;;;;;;5077721;28;20209;-62
2023/05/20 01:24:41;;;;;;;5.40;3.17;;;14.10;99.90;;;;;;5077229;28;20209;-61
2023/05/20 01:27:10;;;;;;;4.53;3.00;;;14.10;99.90;;;;;;5082544;28;20633;-62
2023/05/20 01:29:37;;;;;;;5.03;3.63;;;14.10;99.90;;;;;;5096787;28;20212;-61
2023/05/20 01:32:08;;;;;;;4.00;3.10;;;14.10;99.90;;;;;;5096441;28;20223;-61
2023/05/20 01:34:36;;;;;;;5.47;3.17;;;14.10;99.90;;;;;;5095126;28;20200;-61
2023/05/20 01:37:05;;;;;;;5.23;3.27;;;14.00;99.90;;;;;;5095919;28;20266;-62
2023/05/20 01:39:36;;;;;;;4.17;3.20;;;13.90;99.90;;;;;;5096020;28;20261;-62
2023/05/20 01:42:06;;;;;;;4.73;3.40;;;13.80;99.90;;;;;;5097610;28;20223;-61
2023/05/20 01:44:33;;;;;;;3.17;2.83;;;13.80;99.90;;;;;;5096991;28;20211;-62
2023/05/20 01:47:00;;;;;;;4.40;3.00;;;13.80;99.90;;;;;;5096336;28;20254;-62
2023/05/20 01:49:27;;;;;;;4.43;3.20;;;13.80;99.90;;;;;;5096211;28;20224;-62
2023/05/20 01:51:54;;;;;;;3.90;2.90;;;13.80;99.90;;;;;;5096891;28;20223;-60
2023/05/20 01:54:21;;;;;;;4.63;3.03;;;13.80;99.90;;;;;;5098017;28;20687;-61
2023/05/20 01:56:49;;;;;;;4.10;3.03;;;13.70;99.90;;;;;;5097561;28;20224;-61
2023/05/20 01:59:18;;;;;;;4.90;3.40;;;13.70;99.90;;;;;;5097758;28;20200;-62
2023/05/20 02:01:45;;;;;;;5.60;3.20;;;13.60;99.90;;;;;;5097442;28;20277;-62
2023/05/20 02:04:12;;;;;;;5.57;3.50;;;13.60;99.90;;;;;;5097049;28;20209;-62
2023/05/20 02:06:38;;;;;;;4.17;3.27;;;13.50;99.90;;;;;;5097596;28;20211;-60
2023/05/20 02:09:05;;;;;;;3.67;2.97;;;13.50;99.90;;;;;;5097070;28;20228;-61
2023/05/20 02:11:32;;;;;;;5.00;3.10;;;13.50;99.90;;;;;;5099514;28;20208;-61
2023/05/20 02:13:59;;;;;;;4.07;3.20;;;13.50;99.90;;;;;;5101155;28;20204;-61
2023/05/20 02:16:28;;;;;;;4.27;3.37;;;13.50;99.90;;;;;;5101808;28;20660;-61
2023/05/20 02:18:57;;;;;;;8.83;3.50;;;13.50;99.90;;;;;;5100476;28;20291;-62
2023/05/20 02:21:24;;;;;;;3.77;3.20;;;13.40;99.90;;;;;;5099863;28;20212;-61
2023/05/20 02:23:51;;;;;;;4.90;3.57;;;13.50;99.90;;;;;;5099987;28;20208;-61
2023/05/20 02:26:19;;;;;;;3.90;3.00;;;13.40;99.90;;;;;;5100378;28;20216;-61
2023/05/20 02:28:49;;;;;;;3.97;3.20;;;13.40;99.90;;;;;;5099911;28;20224;-61
2023/05/20 02:31:17;;;;;;;4.80;3.33;;;13.40;99.90;;;;;;5099772;28;20204;-61
2023/05/20 02:33:45;;;;;;;3.37;3.07;;;13.40;99.90;;;;;;5098617;28;20296;-61
2023/05/20 02:36:12;;;;;;;5.00;3.80;;;13.40;99.90;;;;;;5099914;28;20200;-63
2023/05/20 02:38:40;;;;;;;4.23;3.60;;;13.30;99.90;;;;;;5099745;28;20220;-63
2023/05/20 02:41:07;;;;;;;6.43;3.80;;;13.30;99.90;;;;;;5099619;28;20224;-62
2023/05/20 02:43:35;;;;;;;4.37;3.53;;;13.40;99.90;;;;;;5100164;28;20228;-62
2023/05/20 02:46:02;;;;;;;5.03;3.77;;;13.40;99.90;;;;;;5101414;28;20727;-61
2023/05/20 02:48:29;;;;;;;3.93;3.53;;;13.50;99.90;;;;;;5100420;28;20248;-61
2023/05/20 02:50:59;;;;;;;5.27;3.30;;;13.50;99.90;;;;;;5100385;28;20231;-62
2023/05/20 02:53:26;;;;;;;4.20;3.50;;;13.50;99.90;;;;;;5100447;28;20549;-61
2023/05/20 02:55:53;;;;;;;4.13;3.40;;;13.60;99.90;;;;;;5099443;28;20606;-61
2023/05/20 02:58:25;;;;;;;6.33;3.57;;;13.60;99.90;;;;;;5099026;28;20220;-61
2023/05/20 03:00:51;;;;;;;4.40;3.63;;;13.60;99.90;;;;;;5099739;28;20188;-62
2023/05/20 03:03:19;;;;;;;4.43;3.20;;;13.50;99.90;;;;;;5099541;28;20664;-61
2023/05/20 03:05:46;;;;;;;5.37;3.40;;;13.50;99.90;;;;;;5099336;28;20235;-60
2023/05/20 03:08:14;;;;;;;4.67;3.80;;;13.50;99.90;;;;;;5098605;28;20228;-61
2023/05/20 03:10:41;;;;;;;4.90;3.67;;;13.50;99.90;;;;;;5098739;28;20648;-61
2023/05/20 03:13:10;;;;;;;4.27;3.50;;;13.50;99.90;;;;;;5100000;28;20261;-61
2023/05/20 03:15:37;;;;;;;4.30;3.60;;;13.50;99.90;;;;;;5098224;28;20567;-61
2023/05/20 03:18:04;;;;;;;8.60;3.53;;;13.60;99.90;;;;;;5099367;28;20235;-63
2023/05/20 03:20:32;;;;;;;5.47;3.40;;;13.60;99.90;;;;;;5099004;28;20687;-61
2023/05/20 03:22:59;;;;;;;5.47;3.80;;;13.60;99.90;;;;;;5098223;28;20210;-61
2023/05/20 03:25:28;;;;;;;6.63;3.80;;;13.60;99.90;;;;;;5098824;28;20216;-62
2023/05/20 03:27:55;;;;;;;3.80;3.33;;;13.60;99.90;;;;;;5097539;28;20228;-61
2023/05/20 03:30:22;;;;;;;5.87;3.20;;;13.70;99.90;;;;;;5098298;28;20235;-61
2023/05/20 03:32:49;;;;;;;5.53;3.80;;;13.70;99.90;;;;;;5099205;28;20209;-61
2023/05/20 03:35:16;;;;;;;5.17;3.60;;;13.70;99.90;;;;;;5098690;28;20241;-61
2023/05/20 03:37:43;;;;;;;8.53;4.40;;;13.70;99.90;;;;;;5098642;28;20495;-61
2023/05/20 03:40:11;;;;;;;4.43;3.43;;;13.70;99.90;;;;;;5098910;28;20675;-61
2023/05/20 03:42:40;;;;;;;6.53;3.63;;;13.70;99.90;;;;;;5098262;28;20290;-61
2023/05/20 03:45:07;;;;;;;5.40;3.87;;;13.80;99.90;;;;;;5098563;28;20233;-62
2023/05/20 03:47:34;;;;;;;5.33;3.70;;;13.80;99.90;;;;;;5098396;28;20228;-62
2023/05/20 03:50:01;;;;;;;5.37;3.77;;;13.80;99.90;;;;;;5097259;28;20503;-61
2023/05/20 03:52:28;;;;;;;6.37;3.70;;;13.80;99.90;;;;;;5098160;28;20212;-61
2023/05/20 03:54:55;;;;;;;4.20;3.03;;;13.80;99.90;;;;;;5098252;28;20243;-61
2023/05/20 03:57:22;;;;;;;5.07;3.30;;;13.80;99.90;;;;;;5098279;28;20220;-61
2023/05/20 03:59:51;;;;;;;7.53;5.13;;;13.80;99.90;;;;;;5098361;28;20226;-61
2023/05/20 04:02:18;;;;;;;3.97;3.57;;;13.90;99.90;;;;;;5098320;28;20204;-62
2023/05/20 04:04:45;;;;;;;4.17;3.30;;;13.90;99.90;;;;;;5097802;28;20227;-61
2023/05/20 04:07:12;;;;;;;7.40;6.60;;;14.00;99.90;;;;;;5096891;28;20711;-61
2023/05/20 04:09:39;;;;;;;12.47;8.17;;;14.10;99.90;;;;;;5098180;28;20243;-61
2023/05/20 04:12:06;;;;;;;4.97;4.03;;;14.20;99.90;;;;;;5097705;28;20291;-61
2023/05/20 04:14:34;;;;;;;7.37;5.17;;;14.20;99.90;;;;;;5097826;28;20218;-61
2023/05/20 04:17:03;;;;;;;4.90;3.53;;;14.30;99.90;;;;;;5096547;28;20707;-62
2023/05/20 04:19:30;;;;;;;4.00;3.20;;;14.30;99.90;;;;;;5096911;28;20204;-61
2023/05/20 04:21:57;;;;;;;8.43;5.03;;;14.40;99.90;;;;;;5097257;28;20205;-62
2023/05/20 04:24:26;;;;;;;6.40;4.33;;;14.50;99.90;;;;;;5098507;28;20272;-61
2023/05/20 04:26:53;;;;;;;4.40;3.47;;;14.60;99.90;;;;;;5097484;28;20650;-61
2023/05/20 04:29:21;;;;;;;4.30;3.13;;;14.70;99.90;;;;;;5097931;28;20220;-61
2023/05/20 04:31:48;;;;;;;5.20;3.30;;;14.80;99.90;;;;;;5097755;28;20208;-61
2023/05/20 04:34:19;;;;;;;5.00;3.50;;;15.00;99.90;;;;;;5096651;28;20303;-62
2023/05/20 04:36:46;;;;;;;5.30;3.80;;;15.10;99.90;;;;;;5098196;28;20220;-61
2023/05/20 04:39:14;;;;;;;6.10;3.97;;;15.30;99.90;;;;;;5097071;28;20196;-61
2023/05/20 04:41:41;;;;;;;5.53;3.30;;;15.40;99.90;;;;;;5096919;28;20212;-61
2023/05/20 04:44:08;;;;;;;17.87;12.00;;;15.50;99.90;;;;;;5097570;28;20677;-62
2023/05/20 04:46:35;;;;;;;6.80;4.27;;;15.60;99.90;;;;;;5097250;28;20730;-61
2023/05/20 04:49:03;;;;;;;5.17;4.10;;;15.80;99.90;;;;;;5097502;28;20310;-61
2023/05/20 04:51:31;;;;;;;4.87;3.70;;;16.00;99.90;;;;;;5096633;28;20204;-61
2023/05/20 04:53:58;;;;;;;3.33;3.03;;;16.10;99.90;;;;;;5096622;28;20231;-62
2023/05/20 04:56:26;;;;;;;4.63;3.53;;;16.30;99.90;;;;;;5096979;28;20212;-61
2023/05/20 04:58:53;;;;;;;3.10;2.80;;;16.50;99.90;;;;;;5097329;28;20204;-62
2023/05/20 05:01:20;;;;;;;5.07;2.88;;;16.80;99.90;;;;;;5097848;28;20203;-61
2023/05/20 05:03:47;;;;;;;6.35;5.20;;;17.10;99.90;;;;;;5096211;28;20208;-61
2023/05/20 05:06:13;;;;;;;6.38;4.50;;;17.30;99.90;;;;;;5094403;28;20683;-61
2023/05/20 05:08:42;;;;;;;7.10;4.82;;;17.50;99.90;;;;;;5095663;28;20228;-61
2023/05/20 05:11:09;;;;;;;4.32;3.25;;;17.70;99.90;;;;;;5096526;28;20226;-62
2023/05/20 05:13:36;;;;;;;4.15;3.15;;;17.80;99.90;;;;;;5095563;28;20256;-61
2023/05/20 05:16:03;;;;;;;5.07;3.40;;;17.80;99.90;;;;;;5096612;28;20283;-62
2023/05/20 05:18:30;;;;;;;6.07;3.45;;;17.70;99.90;;;;;;5095346;28;20300;-62
2023/05/20 05:21:01;;;;;;;4.57;3.50;;;17.50;99.90;;;;;;5096140;28;20261;-62
2023/05/20 05:23:28;;;;;;;4.78;3.28;;;17.30;99.90;;;;;;5096363;28;20204;-64
2023/05/20 05:25:56;;;;;;;3.78;3.30;;;17.20;99.90;;;;;;5095424;28;20212;-65
2023/05/20 05:28:24;;;;;;;4.10;3.08;;;17.70;99.90;;;;;;5096324;28;20780;-66
2023/05/20 05:30:51;;;;;;;3.47;3.10;;;18.90;99.90;;;;;;5095328;28;20204;-63
2023/05/20 05:33:18;;;;;;;3.72;3.10;;;20.10;99.90;;;;;;5095536;28;20231;-63
2023/05/20 05:35:45;;;;;;;3.17;2.78;;;21.50;99.90;;;;;;5095830;28;20215;-62
2023/05/20 05:38:11;;;;;;;3.28;2.67;;;22.90;99.90;;;;;;5095357;28;20627;-64
2023/05/20 05:40:38;;;;;;;4.60;2.95;;;24.10;99.90;;;;;;5096092;28;20200;-63
2023/05/20 05:43:07;;;;;;;3.03;2.72;;;25.10;99.90;;;;;;5095695;28;20208;-63
2023/05/20 05:45:34;;;;;;;4.63;2.92;;;25.60;99.90;;;;;;5096418;28;20200;-63
2023/05/20 05:48:01;;;;;;;3.13;2.70;;;26.00;99.10;;;;;;5099245;28;20270;-63
2023/05/20 05:50:28;;;;;;;2.67;2.47;;;26.30;97.50;;;;;;5099723;28;20270;-63
2023/05/20 05:52:55;;;;;;;3.00;2.70;;;26.50;96.90;;;;;;5099285;28;20733;-63
2023/05/20 05:55:23;;;;;;;3.70;2.85;;;27.20;95.50;;;;;;5099764;28;20639;-63
2023/05/20 05:57:50;;;;;;;3.38;2.63;;;27.90;93.90;;;;;;5099940;28;20228;-63
2023/05/20 06:00:18;;;;;;;3.78;3.00;;;28.50;92.20;;;;;;5100391;28;20227;-63
2023/05/20 06:02:45;;;;;;;2.97;2.45;;;28.90;91.10;;;;;;5100273;28;20620;-63
2023/05/20 06:05:12;;;;;;;3.00;2.60;;;29.40;89.20;;;;;;5099974;28;20204;-62
2023/05/20 06:07:39;;;;;;;4.80;2.95;;;29.70;86.40;;;;;;5099227;28;20695;-63
2023/05/20 06:10:07;;;;;;;4.25;2.78;;;29.40;85.70;;;;;;5099722;28;20273;-63
2023/05/20 06:12:34;;;;;;;3.40;2.78;;;28.80;86.50;;;;;;5100356;28;20231;-62
2023/05/20 06:15:01;;;;;;;4.70;3.42;;;28.50;86.40;;;;;;5099713;28;20204;-63
2023/05/20 06:17:29;;;;;;;3.67;2.88;;;28.70;86.10;;;;;;5097553;28;20651;-61
2023/05/20 06:19:57;;;;;;;6.55;2.88;;;29.00;84.80;;;;;;5095480;28;20288;-60
2023/05/20 06:22:24;;;;;;;4.10;3.05;;;29.40;84.40;;;;;;5095601;28;20205;-61
2023/05/20 06:24:50;;;;;;;3.58;2.75;;;29.90;81.20;;;;;;5095528;28;20664;-60
2023/05/20 06:27:17;;;;;;;3.97;3.00;;;29.90;80.20;;;;;;5095330;28;20235;-60
2023/05/20 06:29:44;;;;;;;4.95;3.00;;;29.50;82.00;;;;;;5095382;28;20232;-60
2023/05/20 06:32:11;;;;;;;4.68;2.90;;;29.80;80.20;;;;;;5095602;28;20718;-61
2023/05/20 06:34:39;;;;;;;3.13;2.70;;;30.10;79.50;;;;;;5096105;28;20211;-60
2023/05/20 06:37:06;;;;;;;4.63;3.30;;;30.40;77.80;;;;;;5095475;28;20224;-60
2023/05/20 06:39:33;;;;;;;3.70;2.97;;;29.50;78.70;;;;;;5095687;28;20212;-59
2023/05/20 06:42:00;;;;;;;3.85;2.83;;;29.00;79.50;;;;;;5095059;28;20209;-60
2023/05/20 06:44:27;;;;;;;4.57;3.13;;;28.80;79.70;;;;;;5095089;28;20230;-60
2023/05/20 06:46:54;;;;;;;3.53;2.90;;;28.20;81.10;;;;;;5095189;28;20252;-60
2023/05/20 06:49:21;;;;;;;4.97;2.90;;;27.40;83.20;;;;;;5095054;28;20235;-60
2023/05/20 06:51:49;;;;;;;6.93;3.38;;;26.80;85.00;;;;;;5095144;28;20223;-60
2023/05/20 06:54:16;;;;;;;3.35;2.83;;;26.30;87.10;;;;;;5095096;28;20239;-60
2023/05/20 06:56:44;;;;;;;4.53;3.28;;;25.80;88.50;;;;;;5095300;28;20278;-60
2023/05/20 06:59:11;;;;;;;6.97;3.30;;;25.40;89.70;;;;;;5095222;28;20664;-60
2023/05/20 07:01:37;;;;;;;5.75;3.22;;;25.10;90.50;;;;;;5095242;28;20212;-60
2023/05/20 07:04:05;;;;;;;5.57;3.60;;;24.90;90.90;;;;;;5094919;28;20223;-60
2023/05/20 07:06:31;;;;;;;4.50;3.10;;;25.00;90.80;;;;;;5095115;28;20634;-60
2023/05/20 07:09:00;;;;;;;4.07;3.58;;;25.00;90.70;;;;;;5094796;28;20257;-61
2023/05/20 07:11:27;;;;;;;5.13;3.30;;;25.00;91.00;;;;;;5096097;28;20296;-60
2023/05/20 07:13:54;;;;;;;3.40;3.10;;;26.30;90.00;;;;;;5095154;28;20204;-60
2023/05/20 07:16:21;;;;;;;4.63;3.30;;;28.40;84.40;;;;;;5094771;28;20652;-61
2023/05/20 07:18:47;;;;;;;5.43;3.33;;;30.10;79.60;;;;;;5094988;28;20303;-61
2023/05/20 07:21:14;;;;;;;4.70;2.78;;;31.30;75.90;;;;;;5094934;28;20208;-61
2023/05/20 07:23:41;;;;;;;4.10;2.72;;;31.60;73.40;;;;;;5094713;28;20235;-61
2023/05/20 07:26:09;;;;;;;3.00;2.55;;;32.50;71.70;;;;;;5094830;28;20219;-61
2023/05/20 07:28:38;;;;;;;5.43;3.00;;;33.00;68.90;;;;;;5094845;28;20263;-61
2023/05/20 07:31:05;;;;;;;3.40;2.80;;;32.00;69.70;;;;;;5094968;28;20678;-60
2023/05/20 07:33:32;;;;;;;3.45;2.80;;;31.70;70.10;;;;;;5095604;28;20206;-63
2023/05/20 07:35:59;;;;;;;4.60;3.03;;;31.20;70.90;;;;;;5096376;28;20731;-60
2023/05/20 07:38:26;;;;;;;5.60;3.10;;;29.80;73.60;;;;;;5095103;28;20669;-60
2023/05/20 07:40:53;;;;;;;3.47;3.05;;;28.10;77.90;;;;;;5094725;28;20682;-60
2023/05/20 07:43:21;;;;;;;3.40;3.10;;;26.90;80.80;;;;;;5094868;28;20215;-61
2023/05/20 07:45:48;;;;;;;4.30;2.70;;;26.40;82.90;;;;;;5095540;28;20586;-60
2023/05/20 07:48:15;;;;;;;3.75;3.05;;;25.90;85.50;;;;;;5095472;28;20307;-60
2023/05/20 07:50:42;;;;;;;4.47;3.40;;;25.30;86.80;;;;;;5094650;28;20224;-60
2023/05/20 07:53:09;;;;;;;6.18;3.40;;;24.70;88.30;;;;;;5094519;28;20196;-60
2023/05/20 07:55:36;;;;;;;3.70;3.10;;;24.10;90.20;;;;;;5097108;28;20635;-61
2023/05/20 07:58:03;;;;;;;4.85;3.47;;;23.50;91.60;;;;;;5096328;28;20224;-61
2023/05/20 08:00:32;;;;;;;3.67;3.22;;;23.00;92.20;;;;;;5095731;28;20553;-61
2023/05/20 08:03:06;;;;;;;6.60;3.60;;;22.80;92.50;;;;;;5096230;28;20204;-61
2023/05/20 08:05:36;;;;;;;3.90;3.42;;;22.80;92.90;;;;;;5096847;28;20203;-61
2023/05/20 08:08:06;;;;;;;6.57;3.63;;;23.40;92.40;;;;;;5096864;28;20227;-62
2023/05/20 08:10:33;;;;;;;6.60;3.67;;;23.60;92.10;;;;;;5094487;28;20222;-62
2023/05/20 08:13:00;;;;;;;3.50;3.20;;;23.60;92.10;;;;;;5095425;28;20242;-62
2023/05/20 08:15:32;;;;;;;3.78;3.38;;;24.30;91.50;;;;;;5094828;28;20207;-61
2023/05/20 08:17:59;;;;;;;6.80;3.42;;;24.30;91.50;;;;;;5094981;28;20238;-60
2023/05/20 08:20:26;;;;;;;4.47;3.10;;;23.70;91.90;;;;;;5094471;28;20207;-60
2023/05/20 08:22:53;;;;;;;4.20;3.40;;;23.30;92.90;;;;;;5095177;28;20215;-60
2023/05/20 08:25:20;;;;;;;8.00;3.30;;;23.00;93.30;;;;;;5095084;28;20200;-60
2023/05/20 08:27:46;;;;;;;4.72;3.40;;;22.60;93.90;;;;;;5094045;28;20224;-59
2023/05/20 08:30:13;;;;;;;5.57;3.70;;;22.50;94.40;;;;;;5094039;28;20258;-60
2023/05/20 08:32:41;;;;;;;4.15;3.33;;;22.70;94.20;;;;;;5093648;28;20204;-61
2023/05/20 08:35:09;;;;;;;4.13;3.40;;;23.00;94.10;;;;;;5093721;28;20688;-60
2023/05/20 08:37:35;;;;;;;3.55;3.25;;;23.20;93.60;;;;;;5094613;28;20220;-60
2023/05/20 08:40:04;;;;;;;4.65;3.95;;;23.40;93.40;;;;;;5094675;28;20211;-60
2023/05/20 08:42:30;;;;;;;5.68;3.70;;;23.40;93.30;;;;;;5094196;28;20302;-61
2023/05/20 08:44:59;;;;;;;4.75;3.67;;;23.60;93.30;;;;;;5094174;28;20267;-60
2023/05/20 08:47:26;;;;;;;4.18;3.58;;;23.70;93.30;;;;;;5094220;28;20235;-60
2023/05/20 08:49:55;;;;;;;4.38;3.42;;;23.90;93.50;;;;;;5093733;28;20255;-63
2023/05/20 08:52:22;;;;;;;5.80;3.50;;;24.30;92.80;;;;;;5091358;28;20208;-62
2023/05/20 08:54:50;;;;;;;4.03;3.42;;;24.80;91.80;;;;;;5094758;28;20204;-62
2023/05/20 08:57:19;;;;;;;3.95;3.20;;;25.00;91.70;;;;;;5095195;28;20251;-63
2023/05/20 08:59:46;;;;;;;4.18;3.20;;;25.00;91.60;;;;;;5094952;28;20204;-60
2023/05/20 09:02:14;;;;;;;4.53;3.70;;;25.20;91.40;;;;;;5095733;28;20238;-62
2023/05/20 09:04:41;;;;;;;3.42;2.90;;;25.10;90.70;;;;;;5095716;28;20205;-62
2023/05/20 09:07:09;;;;;;;4.00;3.35;;;24.80;91.50;;;;;;5095395;28;20795;-60
2023/05/20 09:09:36;;;;;;;3.40;3.10;;;24.60;91.80;;;;;;5093953;28;20208;-60
2023/05/20 09:12:04;;;;;;;5.80;3.13;;;24.70;91.80;;;;;;5093729;28;20300;-59
2023/05/20 09:14:31;;;;;;;3.70;3.20;;;24.80;91.70;;;;;;5093475;28;20203;-58
2023/05/20 09:16:58;;;;;;;4.15;3.40;;;25.20;91.40;;;;;;5093327;28;20613;-60
2023/05/20 09:19:26;;;;;;;4.00;3.13;;;25.50;90.80;;;;;;5094499;28;20211;-59
2023/05/20 09:21:53;;;;;;;4.22;3.35;;;25.60;91.20;;;;;;5097632;28;20229;-59
2023/05/20 09:24:26;;;;;;;3.50;3.10;;;25.40;90.80;;;;;;5098202;28;20226;-61
2023/05/20 09:26:53;;;;;;;4.35;3.08;;;25.40;90.80;;;;;;5099020;28;20232;-63
2023/05/20 09:29:20;;;;;;;4.13;3.70;;;25.20;90.80;;;;;;5098758;28;20698;-62
2023/05/20 09:31:48;;;;;;;4.43;3.50;;;25.10;91.00;;;;;;5099294;28;20228;-62
2023/05/20 09:34:15;;;;;;;3.50;3.20;;;24.90;91.50;;;;;;5098761;28;20207;-61
2023/05/20 09:36:43;;;;;;;4.28;3.50;;;;;;;;;;5098205;28;20424;-64
2023/05/20 09:39:14;;;;;;;3.63;3.05;;;24.70;91.50;;;;;;5099643;28;20219;-63
2023/05/20 09:41:49;;;;;;;3.17;2.90;;;24.90;91.60;;;;;;5099244;28;20204;-62
2023/05/20 09:44:17;;;;;;;6.30;3.50;;;25.00;91.70;;;;;;5098550;28;20225;-62
2023/05/20 09:46:45;;;;;;;4.55;3.50;;;25.00;91.30;;;;;;5098203;28;20582;-62
2023/05/20 09:49:14;;;;;;;3.28;2.97;;;25.10;91.20;;;;;;5098992;28;20749;-62
2023/05/20 09:51:43;;;;;;;3.58;3.15;;;24.80;90.80;;;;;;5099530;28;20238;-63
2023/05/20 09:54:12;;;;;;;5.75;3.65;;;24.80;91.00;;;;;;5098937;28;20284;-59
2023/05/20 09:56:43;;;;;;;3.67;3.10;;;25.00;90.90;;;;;;5098678;28;20275;-62
2023/05/20 09:59:11;;;;;;;3.30;3.00;;;25.50;90.30;;;;;;5100713;28;20252;-65
2023/05/20 10:01:38;;;;;;;4.82;3.10;;;25.90;88.50;;;;;;5100299;28;20245;-64
2023/05/20 10:04:08;;;;;;;5.10;3.33;;;25.80;89.20;;;;;;5101796;28;20208;-61
2023/05/20 10:06:52;;;;;;;4.13;3.40;;;25.40;89.40;;;;;;5099268;28;20208;-63
2023/05/20 10:09:32;;;;;;;4.80;3.25;;;25.10;90.30;;;;;;5099601;28;20741;-61
2023/05/20 10:12:07;;;;;;;3.75;3.30;;;24.90;90.60;;;;;;5099179;28;20245;-67
2023/05/20 10:14:44;;;;;;;3.72;3.30;;;24.80;90.60;;;;;;5099999;28;20208;-62
2023/05/20 10:17:17;;;;;;;6.18;3.40;;;24.80;90.50;;;;;;5098646;28;20327;-62
2023/05/20 10:19:44;;;;;;;3.28;2.97;;;25.00;90.90;;;;;;5099817;28;20267;-62
2023/05/20 10:22:12;;;;;;;4.28;3.20;;;25.20;90.40;;;;;;5099204;28;20703;-63
2023/05/20 10:24:40;;;;;;;3.40;3.10;;;25.40;90.20;;;;;;5098583;28;20204;-61
2023/05/20 10:27:11;;;;;;;3.30;3.00;;;25.60;89.30;;;;;;5099057;28;20707;-62
2023/05/20 10:29:46;;;;;;;5.88;3.10;;;25.70;89.00;;;;;;5099022;28;20230;-63
2023/05/20 10:32:24;;;;;;;5.95;3.10;;;25.60;89.40;;;;;;5096356;28;20707;-62
2023/05/20 10:34:52;;;;;;;4.03;2.95;;;25.60;89.10;;;;;;5098893;28;20208;-63
2023/05/20 10:37:27;;;;;;;4.43;3.10;;;25.50;89.90;;;;;;5098787;28;20216;-59
2023/05/20 10:40:05;;;;;;;3.55;3.25;;;25.10;89.90;;;;;;5097153;28;20291;-59
2023/05/20 10:42:34;;;;;;;3.75;3.20;;;24.60;90.00;;;;;;5096074;28;20208;-59
2023/05/20 10:45:00;;;;;;;3.53;3.22;;;24.40;90.70;;;;;;5095623;28;20216;-59
2023/05/20 10:47:27;;;;;;;3.72;3.00;;;24.40;90.40;;;;;;5096225;28;20224;-58
2023/05/20 10:49:54;;;;;;;4.43;3.10;;;24.60;90.60;;;;;;5095657;28;20192;-59
2023/05/20 10:52:21;;;;;;;3.75;3.22;;;24.80;90.90;;;;;;5095836;28;20232;-58
2023/05/20 10:54:56;;;;;;;4.03;2.80;;;24.80;89.60;;;;;;5095434;28;20208;-58
2023/05/20 10:57:23;;;;;;;6.85;3.13;;;24.60;90.60;;;;;;5095332;28;20231;-58
2023/05/20 10:59:51;;;;;;;4.35;3.08;;;24.30;90.50;;;;;;5095323;28;20257;-59
2023/05/20 11:02:21;;;;;;;3.00;2.80;;;24.50;90.70;;;;;;5095421;28;20203;-59
2023/05/20 11:04:49;;;;;;;3.20;2.90;;;24.90;90.90;;;;;;5095603;28;20624;-59
2023/05/20 11:07:26;;;;;;;5.30;3.33;;;25.50;90.00;;;;;;5095417;28;20314;-59
2023/05/20 11:09:53;;;;;;;3.83;3.08;;;25.80;89.20;;;;;;5095741;28;20210;-59
2023/05/20 11:12:21;;;;;;;3.50;3.20;;;25.60;88.30;;;;;;5095290;28;20228;-58
2023/05/20 11:14:48;;;;;;;4.70;3.10;;;25.60;88.40;;;;;;5094937;28;20295;-58
2023/05/20 11:17:17;;;;;;;3.63;3.30;;;25.80;87.80;;;;;;5094762;28;20232;-59
2023/05/20 11:19:44;;;;;;;3.35;3.03;;;26.00;87.90;;;;;;5094665;28;20581;-59
2023/05/20 11:22:11;;;;;;;4.93;3.00;;;26.00;87.80;;;;;;5094233;28;20212;-59
2023/05/20 11:24:38;;;;;;;4.03;3.00;;;25.80;87.70;;;;;;5094595;28;20212;-59
2023/05/20 11:27:06;;;;;;;3.85;3.30;;;25.70;87.40;;;;;;5094501;28;20246;-59
2023/05/20 11:29:33;;;;;;;4.20;3.35;;;25.60;88.70;;;;;;5094890;28;20204;-57
2023/05/20 11:32:00;;;;;;;3.33;2.97;;;25.20;88.60;;;;;;5094494;28;20719;-60
2023/05/20 11:34:33;;;;;;;3.15;2.90;;;25.20;89.30;;;;;;5094448;28;20207;-59
2023/05/20 11:37:01;;;;;;;4.20;3.20;;;25.20;88.40;;;;;;5094766;28;20231;-59
2023/05/20 11:39:30;;;;;;;4.82;3.55;;;25.20;88.20;;;;;;5094714;28;20204;-57
2023/05/20 11:41:58;;;;;;;3.40;3.10;;;25.40;88.00;;;;;;5094618;28;20201;-59
2023/05/20 11:44:25;;;;;;;3.80;3.47;;;25.60;87.40;;;;;;5093561;28;20208;-58
2023/05/20 11:46:58;;;;;;;3.22;2.90;;;25.80;87.90;;;;;;5094459;28;20285;-59
2023/05/20 11:49:25;;;;;;;4.95;3.05;;;26.30;86.50;;;;;;5094727;28;20203;-60
2023/05/20 11:51:53;;;;;;;4.03;3.15;;;26.50;85.80;;;;;;5095161;28;20263;-61
2023/05/20 11:54:23;;;;;;;4.35;3.33;;;26.40;86.10;;;;;;5096517;28;20211;-61
2023/05/20 11:56:50;;;;;;;3.85;3.03;;;26.20;86.10;;;;;;5096280;28;20289;-62
2023/05/20 11:59:17;;;;;;;3.85;3.00;;;26.20;85.00;;;;;;5096240;28;20277;-61
2023/05/20 12:01:44;;;;;;;3.88;3.30;;;26.20;86.60;;;;;;5095953;28;20201;-61
2023/05/20 12:04:11;;;;;;;3.67;3.38;;;26.30;87.00;;;;;;5096451;28;20231;-62
2023/05/20 12:06:38;;;;;;;3.72;2.78;;;26.60;85.50;;;;;;5096356;28;20212;-62
2023/05/20 12:09:07;;;;;;;4.80;3.15;;;26.80;84.90;;;;;;5096461;28;20200;-63
2023/05/20 12:11:35;;;;;;;4.50;3.13;;;26.90;85.50;;;;;;5096757;28;20220;-62
2023/05/20 12:14:02;;;;;;;3.42;3.10;;;26.80;83.50;;;;;;5096315;28;20232;-62
2023/05/20 12:16:28;;;;;;;5.25;3.05;;;26.50;84.00;;;;;;5096066;28;20642;-62
2023/05/20 12:18:55;;;;;;;3.80;3.20;;;26.40;85.20;;;;;;5095931;28;20269;-62
2023/05/20 12:21:22;;;;;;;3.88;3.03;;;26.20;85.00;;;;;;5095284;28;20295;-63
2023/05/20 12:23:49;;;;;;;3.65;2.97;;;26.10;85.70;;;;;;5094726;28;20200;-62
2023/05/20 12:26:17;;;;;;;3.63;2.55;;;26.20;86.10;;;;;;5094883;28;20291;-63
2023/05/20 12:28:44;;;;;;;3.85;3.03;;;26.40;85.30;;;;;;5095714;28;20220;-63
2023/05/20 12:31:10;;;;;;;3.60;3.17;;;26.70;84.90;;;;;;5096701;28;20232;-62
2023/05/20 12:33:37;;;;;;;4.13;3.38;;;26.90;84.00;;;;;;5097641;28;20306;-64
2023/05/20 12:36:05;;;;;;;3.40;3.03;;;26.90;83.20;;;;;;5096870;28;20204;-62
2023/05/20 12:38:32;;;;;;;4.57;2.70;;;26.90;82.20;;;;;;5096363;28;20224;-63
2023/05/20 12:40:59;;;;;;;5.45;2.97;;;26.70;82.30;;;;;;5096461;28;20209;-62
2023/05/20 12:43:27;;;;;;;3.38;3.08;;;26.70;82.80;;;;;;5097020;28;20212;-63
2023/05/20 12:45:54;;;;;;;7.13;2.97;;;26.70;83.30;;;;;;5095107;28;20204;-63
2023/05/20 12:48:21;;;;;;;6.43;4.13;;;26.70;81.90;;;;;;5097175;28;20628;-62
2023/05/20 12:50:48;;;;;;;3.15;2.78;;;26.90;80.50;;;;;;5096637;28;20204;-62